createdAt,value
2019-02-25T00:00:36.505Z,25.88
2019-02-25T00:03:05.094Z,32.58
2019-02-25T00:05:33.637Z,26.97
2019-02-25T00:08:02.145Z,28.57
2019-02-25T00:10:30.692Z,23.95
2019-02-25T00:12:59.207Z,25.68
2019-02-25T00:15:27.736Z,28.20
2019-02-25T00:17:56.249Z,28.07
2019-02-25T00:20:24.810Z,31.25
2019-02-25T00:22:53.328Z,36.60
2019-02-25T00:25:21.817Z,28.67
2019-02-25T00:27:50.419Z,36.60
2019-02-25T00:30:18.934Z,31.57
2019-02-25T00:32:47.485Z,30.88
2019-02-25T00:35:16.006Z,30.43
2019-02-25T00:37:44.559Z,29.67
2019-02-25T00:40:14.437Z,36.77
2019-02-25T00:42:42.956Z,32.17
2019-02-25T00:45:15.884Z,29.50
2019-02-25T00:47:44.392Z,34.92
2019-02-25T00:50:23.094Z,33.53
2019-02-25T00:52:51.597Z,33.88
2019-02-25T00:55:20.143Z,30.70
2019-02-25T00:57:48.716Z,26.40
2019-02-25T01:00:21.486Z,36.50
2019-02-25T01:02:49.985Z,32.95
2019-02-25T01:05:18.665Z,32.75
2019-02-25T01:07:47.190Z,33.30
2019-02-25T01:10:16.122Z,30.95
2019-02-25T01:12:45.620Z,29.77
2019-02-25T01:15:14.370Z,32.17
2019-02-25T01:17:42.880Z,27.22
2019-02-25T01:20:15.681Z,26.23
2019-02-25T01:22:44.245Z,29.70
2019-02-25T01:25:15.198Z,36.28
2019-02-25T01:27:43.713Z,32.63
2019-02-25T01:30:13.762Z,32.60
2019-02-25T01:32:42.325Z,23.73
2019-02-25T01:35:12.469Z,26.97
2019-02-25T01:37:41.016Z,27.37
2019-02-25T01:40:11.705Z,25.62
2019-02-25T01:42:40.268Z,31.23
2019-02-25T01:45:13.635Z,30.35
2019-02-25T01:47:42.149Z,34.05
2019-02-25T01:50:11.426Z,25.97
2019-02-25T01:52:39.940Z,27.30
2019-02-25T01:55:12.759Z,23.12
2019-02-25T01:57:41.273Z,28.55
2019-02-25T02:00:17.233Z,32.78
2019-02-25T02:02:45.841Z,25.32
2019-02-25T02:05:14.434Z,28.15
2019-02-25T02:07:43.037Z,27.73
2019-02-25T02:10:17.780Z,27.00
2019-02-25T02:12:46.305Z,24.60
2019-02-25T02:15:16.465Z,26.27
2019-02-25T02:17:45.011Z,26.15
2019-02-25T02:20:16.379Z,30.45
2019-02-25T02:22:44.878Z,35.75
2019-02-25T02:25:13.964Z,23.22
2019-02-25T02:27:42.475Z,27.05
2019-02-25T02:30:22.219Z,25.77
2019-02-25T02:32:50.737Z,25.75
2019-02-25T02:35:19.273Z,27.00
2019-02-25T02:37:47.789Z,22.58
2019-02-25T02:40:16.312Z,29.85
2019-02-25T02:43:01.667Z,24.30
2019-02-25T02:45:51.497Z,29.60
2019-02-25T02:48:31.925Z,25.32
2019-02-25T02:51:00.518Z,26.65
2019-02-25T02:53:29.078Z,26.15
2019-02-25T02:55:57.653Z,31.20
2019-02-25T02:58:26.186Z,30.40
2019-02-25T03:00:54.707Z,24.40
2019-02-25T03:03:23.247Z,28.62
2019-02-25T03:05:51.827Z,23.47
2019-02-25T03:08:20.358Z,28.20
2019-02-25T03:10:48.882Z,22.58
2019-02-25T03:13:17.630Z,28.42
2019-02-25T03:15:46.159Z,24.50
2019-02-25T03:18:14.664Z,24.23
2019-02-25T03:20:43.298Z,26.95
2019-02-25T03:23:11.882Z,30.97
2019-02-25T03:25:40.389Z,24.00
2019-02-25T03:28:08.920Z,25.27
2019-02-25T03:30:37.417Z,30.00
2019-02-25T03:33:05.950Z,28.42
2019-02-25T03:35:34.463Z,23.65
2019-02-25T03:38:03.021Z,24.98
2019-02-25T03:40:31.529Z,25.92
2019-02-25T03:43:00.066Z,22.50
2019-02-25T03:45:28.594Z,27.60
2019-02-25T03:47:57.108Z,25.50
2019-02-25T03:50:25.696Z,18.55
2019-02-25T03:52:54.193Z,16.90
2019-02-25T03:55:22.751Z,24.00
2019-02-25T03:57:51.260Z,18.98
2019-02-25T04:00:21.863Z,19.02
2019-02-25T04:02:50.458Z,13.25
2019-02-25T04:05:18.966Z,14.20
2019-02-25T04:07:47.483Z,15.48
2019-02-25T04:10:16.062Z,16.65
2019-02-25T04:12:44.603Z,12.23
2019-02-25T04:15:18.014Z,15.43
2019-02-25T04:17:46.562Z,17.20
2019-02-25T04:20:16.610Z,20.08
2019-02-25T04:22:45.113Z,23.07
2019-02-25T04:25:13.655Z,16.37
2019-02-25T04:27:42.152Z,16.05
2019-02-25T04:30:17.185Z,17.87
2019-02-25T04:32:45.685Z,18.75
2019-02-25T04:35:14.487Z,18.17
2019-02-25T04:37:43.087Z,19.17
2019-02-25T04:40:15.099Z,22.22
2019-02-25T04:42:43.642Z,20.48
2019-02-25T04:45:14.276Z,19.35
2019-02-25T04:47:42.962Z,19.42
2019-02-25T04:50:12.531Z,19.42
2019-02-25T04:52:41.192Z,19.05
2019-02-25T04:55:11.136Z,18.60
2019-02-25T04:57:39.623Z,18.00
2019-02-25T05:00:20.066Z,17.35
2019-02-25T05:02:48.636Z,20.90
2019-02-25T05:05:17.157Z,21.77
2019-02-25T05:07:45.677Z,22.75
2019-02-25T05:10:15.600Z,21.10
2019-02-25T05:12:45.757Z,18.27
2019-02-25T05:15:18.948Z,19.37
2019-02-25T05:17:47.479Z,21.35
2019-02-25T05:20:15.986Z,24.05
2019-02-25T05:22:44.502Z,24.82
2019-02-25T05:25:13.003Z,18.82
2019-02-25T05:27:41.530Z,23.12
2019-02-25T05:30:15.001Z,19.75
2019-02-25T05:32:43.556Z,25.23
2019-02-25T05:35:13.297Z,22.60
2019-02-25T05:37:41.862Z,18.65
2019-02-25T05:40:15.229Z,21.40
2019-02-25T05:42:43.949Z,21.97
2019-02-25T05:45:13.327Z,22.52
2019-02-25T05:47:41.948Z,22.55
2019-02-25T05:50:17.641Z,20.68
2019-02-25T05:52:46.214Z,27.13
2019-02-25T05:55:15.691Z,25.02
2019-02-25T05:57:44.200Z,24.35
2019-02-25T06:00:22.727Z,24.05
2019-02-25T06:02:51.290Z,21.45
2019-02-25T06:05:19.845Z,20.20
2019-02-25T06:07:48.673Z,29.87
2019-02-25T06:10:17.189Z,21.82
2019-02-25T06:12:45.708Z,34.30
2019-02-25T06:15:19.315Z,30.27
2019-02-25T06:17:48.152Z,23.38
2019-02-25T06:20:17.454Z,63.87
2019-02-25T06:22:46.106Z,42.62
2019-02-25T06:25:15.605Z,31.87
2019-02-25T06:27:44.211Z,59.75
2019-02-25T06:30:23.172Z,27.48
2019-02-25T06:32:51.825Z,24.85
2019-02-25T06:35:20.451Z,30.75
2019-02-25T06:37:49.308Z,23.47
2019-02-25T06:40:21.021Z,20.27
2019-02-25T06:45:19.807Z,26.57
2019-02-25T06:47:48.422Z,23.02
2019-02-25T06:50:16.940Z,24.20
2019-02-25T06:52:45.451Z,26.70
2019-02-25T06:55:15.700Z,25.32
2019-02-25T06:57:44.336Z,21.75
2019-02-25T07:00:18.488Z,25.32
2019-02-25T07:02:46.996Z,21.33
2019-02-25T07:05:33.514Z,22.17
2019-02-25T07:08:12.409Z,25.88
2019-02-25T07:10:57.744Z,25.52
2019-02-25T07:13:44.204Z,25.43
2019-02-25T07:16:17.138Z,25.15
2019-02-25T07:18:47.313Z,21.10
2019-02-25T07:21:26.495Z,30.62
2019-02-25T07:24:15.163Z,23.42
2019-02-25T07:27:00.667Z,21.68
2019-02-25T07:29:30.847Z,26.20
2019-02-25T07:32:01.001Z,17.02
2019-02-25T07:34:37.848Z,22.07
2019-02-25T07:37:20.264Z,17.90
2019-02-25T07:39:50.456Z,20.32
2019-02-25T07:42:20.798Z,22.20
2019-02-25T07:45:17.737Z,23.98
2019-02-25T07:47:50.820Z,25.00
2019-02-25T07:50:29.993Z,25.90
2019-02-25T07:53:18.403Z,26.23
2019-02-25T07:56:02.399Z,33.20
2019-02-25T08:01:15.711Z,38.17
2019-02-25T08:03:45.851Z,30.95
2019-02-25T08:06:18.539Z,29.92
2019-02-25T08:08:51.525Z,30.17
2019-02-25T08:11:36.705Z,31.15
2019-02-25T08:14:23.572Z,31.40
2019-02-25T08:16:59.619Z,32.50
2019-02-25T08:19:42.082Z,36.75
2019-02-25T08:22:22.885Z,40.28
2019-02-25T08:25:09.517Z,38.03
2019-02-25T08:27:39.676Z,32.98
2019-02-25T08:30:28.735Z,31.52
2019-02-25T08:32:59.000Z,40.98
2019-02-25T08:36:04.103Z,42.62
2019-02-25T08:38:48.944Z,35.90
2019-02-25T08:41:22.230Z,38.38
2019-02-25T08:43:52.529Z,41.98
2019-02-25T08:46:22.671Z,34.05
2019-02-25T08:48:53.258Z,36.60
2019-02-25T08:51:21.938Z,32.88
2019-02-25T08:53:50.499Z,35.50
2019-02-25T08:56:19.025Z,34.15
2019-02-25T08:58:47.540Z,28.98
2019-02-25T09:01:16.535Z,41.33
2019-02-25T09:03:45.242Z,37.15
2019-02-25T09:06:13.776Z,37.90
2019-02-25T09:08:42.288Z,44.30
2019-02-25T09:11:14.106Z,32.67
2019-02-25T09:13:41.419Z,33.33
2019-02-25T09:16:10.018Z,35.10
2019-02-25T09:18:38.538Z,38.15
2019-02-25T09:21:08.226Z,36.65
2019-02-25T09:23:37.081Z,44.67
2019-02-25T09:26:05.606Z,34.00
2019-02-25T09:28:34.180Z,37.13
2019-02-25T09:31:02.716Z,35.25
2019-02-25T09:33:31.326Z,34.48
2019-02-25T09:35:59.877Z,37.30
2019-02-25T09:38:28.445Z,37.63
2019-02-25T09:40:56.959Z,33.35
2019-02-25T09:43:25.524Z,28.73
2019-02-25T09:45:54.267Z,23.50
2019-02-25T09:48:22.785Z,28.80
2019-02-25T09:50:51.391Z,28.17
2019-02-25T09:53:19.926Z,29.67
2019-02-25T09:55:52.923Z,31.30
2019-02-25T09:58:21.461Z,26.55
2019-02-25T10:00:49.959Z,27.55
2019-02-25T10:03:21.085Z,30.72
2019-02-25T10:05:49.850Z,28.67
2019-02-25T10:08:18.355Z,29.15
2019-02-25T10:10:46.916Z,23.75
2019-02-25T10:13:15.735Z,25.50
2019-02-25T10:15:44.652Z,28.77
2019-02-25T10:18:13.171Z,27.73
2019-02-25T10:20:41.903Z,26.55
2019-02-25T10:23:10.591Z,27.58
2019-02-25T10:25:39.126Z,31.25
2019-02-25T10:28:08.580Z,22.82
2019-02-25T10:30:37.143Z,26.12
2019-02-25T10:33:05.791Z,27.20
2019-02-25T10:35:34.395Z,25.70
2019-02-25T10:38:03.279Z,23.50
2019-02-25T10:40:31.979Z,24.98
2019-02-25T10:43:00.504Z,23.60
2019-02-25T10:45:29.244Z,26.30
2019-02-25T10:47:58.756Z,23.80
2019-02-25T10:50:28.829Z,20.55
2019-02-25T10:53:03.486Z,25.70
2019-02-25T10:55:34.617Z,25.40
2019-02-25T10:58:03.784Z,24.60
2019-02-25T11:00:32.704Z,26.97
2019-02-25T11:03:01.213Z,26.05
2019-02-25T11:05:30.594Z,24.90
2019-02-25T11:08:00.478Z,25.05
2019-02-25T11:10:30.717Z,30.08
2019-02-25T11:12:59.941Z,24.80
2019-02-25T11:15:30.990Z,26.95
2019-02-25T11:17:59.535Z,24.37
2019-02-25T11:20:29.255Z,29.75
2019-02-25T11:22:58.579Z,24.65
2019-02-25T11:25:28.479Z,31.80
2019-02-25T11:27:57.634Z,30.32
2019-02-25T11:30:26.177Z,27.17
2019-02-25T11:32:56.233Z,26.60
2019-02-25T11:35:24.969Z,28.80
2019-02-25T11:37:54.724Z,37.20
2019-02-25T11:40:23.751Z,33.10
2019-02-25T11:42:57.171Z,24.65
2019-02-25T11:45:22.596Z,24.80
2019-02-25T11:47:51.216Z,26.80
2019-02-25T11:50:20.874Z,26.62
2019-02-25T11:52:49.655Z,27.15
2019-02-25T11:55:18.264Z,27.48
2019-02-25T11:57:46.855Z,26.10
2019-02-25T12:00:23.318Z,22.10
2019-02-25T12:02:51.829Z,24.90
2019-02-25T12:05:20.812Z,25.10
2019-02-25T12:07:49.345Z,25.55
2019-02-25T12:10:18.560Z,29.02
2019-02-25T12:12:47.127Z,34.13
2019-02-25T12:15:17.340Z,28.20
2019-02-25T12:17:45.947Z,30.23
2019-02-25T12:20:14.843Z,22.22
2019-02-25T12:22:43.363Z,26.85
2019-02-25T12:25:25.275Z,28.98
2019-02-25T12:27:53.810Z,29.02
2019-02-25T12:30:27.185Z,31.25
2019-02-25T12:32:55.789Z,31.45
2019-02-25T12:35:24.426Z,31.73
2019-02-25T12:37:52.913Z,31.23
2019-02-25T12:40:21.748Z,31.77
2019-02-25T12:42:50.324Z,31.20
2019-02-25T12:45:18.842Z,30.70
2019-02-25T12:47:47.427Z,29.60
2019-02-25T12:50:19.824Z,34.55
2019-02-25T12:52:48.426Z,28.62
2019-02-25T12:55:20.572Z,23.67
2019-02-25T12:57:49.093Z,30.30
2019-02-25T13:00:19.820Z,31.30
2019-02-25T13:02:48.337Z,25.88
2019-02-25T13:05:17.886Z,24.40
2019-02-25T13:07:46.431Z,25.40
2019-02-25T13:10:15.973Z,37.55
2019-02-25T13:12:44.514Z,27.52
2019-02-25T13:15:18.271Z,24.47
2019-02-25T13:17:46.795Z,29.63
2019-02-25T13:20:15.855Z,25.27
2019-02-25T13:22:44.388Z,24.10
2019-02-25T13:25:17.953Z,28.25
2019-02-25T13:27:46.461Z,31.85
2019-02-25T13:30:18.596Z,27.35
2019-02-25T13:32:47.133Z,46.98
2019-02-25T13:35:16.035Z,26.12
2019-02-25T13:37:44.628Z,28.45
2019-02-25T13:40:14.495Z,32.98
2019-02-25T13:42:43.024Z,30.17
2019-02-25T13:45:16.358Z,33.40
2019-02-25T13:47:45.305Z,29.02
2019-02-25T13:50:15.260Z,37.58
2019-02-25T13:52:48.193Z,30.55
2019-02-25T13:55:15.625Z,29.63
2019-02-25T13:57:44.288Z,35.10
2019-02-25T14:00:18.087Z,33.53
2019-02-25T14:02:46.703Z,31.17
2019-02-25T14:05:15.386Z,28.32
2019-02-25T14:07:44.367Z,24.98
2019-02-25T14:10:19.894Z,26.35
2019-02-25T14:12:48.600Z,25.62
2019-02-25T14:15:19.585Z,24.92
2019-02-25T14:17:48.312Z,24.57
2019-02-25T14:20:20.705Z,27.65
2019-02-25T14:22:49.297Z,28.87
2019-02-25T14:25:21.488Z,33.40
2019-02-25T14:27:50.214Z,24.40
2019-02-25T14:30:23.525Z,35.40
2019-02-25T14:32:53.530Z,27.48
2019-02-25T14:35:28.613Z,26.87
2019-02-25T14:38:02.480Z,29.30
2019-02-25T14:40:32.484Z,25.52
2019-02-25T14:43:03.276Z,29.98
2019-02-25T14:45:32.245Z,23.42
2019-02-25T14:48:04.775Z,31.23
2019-02-25T14:50:31.773Z,26.25
2019-02-25T14:53:01.259Z,29.65
2019-02-25T14:55:30.837Z,28.90
2019-02-25T14:58:02.161Z,25.35
2019-02-25T15:00:32.100Z,31.07
2019-02-25T15:03:00.098Z,38.80
2019-02-25T15:05:28.859Z,34.27
2019-02-25T15:07:57.893Z,32.78
2019-02-25T15:10:29.213Z,32.10
2019-02-25T15:12:59.065Z,32.98
2019-02-25T15:15:27.697Z,33.53
2019-02-25T15:17:56.513Z,32.55
2019-02-25T15:20:26.842Z,33.60
2019-02-25T15:22:55.515Z,35.13
2019-02-25T15:25:24.219Z,39.38
2019-02-25T15:27:54.149Z,37.50
2019-02-25T15:30:30.315Z,32.55
2019-02-25T15:32:58.903Z,38.15
2019-02-25T15:35:31.385Z,34.45
2019-02-25T15:38:00.654Z,36.42
2019-02-25T15:40:29.642Z,34.50
2019-02-25T15:43:03.546Z,40.23
2019-02-25T15:45:35.384Z,38.80
2019-02-25T15:48:04.905Z,39.83
2019-02-25T15:50:33.692Z,36.60
2019-02-25T15:53:03.287Z,34.95
2019-02-25T15:55:32.749Z,41.77
2019-02-25T15:58:01.393Z,35.48
2019-02-25T16:00:32.160Z,37.00
2019-02-25T16:03:01.091Z,42.20
2019-02-25T16:05:31.600Z,37.55
2019-02-25T16:08:01.986Z,41.00
2019-02-25T16:10:31.075Z,37.53
2019-02-25T16:13:00.039Z,39.13
2019-02-25T16:15:30.703Z,46.60
2019-02-25T16:17:59.599Z,37.15
2019-02-25T16:20:32.288Z,41.53
2019-02-25T16:23:00.467Z,39.90
2019-02-25T16:25:29.912Z,45.28
2019-02-25T16:27:59.729Z,44.15
2019-02-25T16:30:30.666Z,41.45
2019-02-25T16:33:00.014Z,53.52
2019-02-25T16:35:29.028Z,56.00
2019-02-25T16:37:58.341Z,54.85
2019-02-25T16:40:29.168Z,64.90
2019-02-25T16:42:59.824Z,58.30
2019-02-25T16:45:34.557Z,56.00
2019-02-25T16:47:58.975Z,53.95
2019-02-25T16:50:28.137Z,58.73
2019-02-25T16:52:56.809Z,58.15
2019-02-25T16:55:27.791Z,57.17
2019-02-25T16:57:56.117Z,55.63
2019-02-25T17:00:32.424Z,66.62
2019-02-25T17:03:03.737Z,56.50
2019-02-25T17:05:31.849Z,59.15
2019-02-25T17:08:01.229Z,51.08
2019-02-25T17:10:32.087Z,54.23
2019-02-25T17:13:01.275Z,64.15
2019-02-25T17:15:31.861Z,52.35
2019-02-25T17:18:00.481Z,54.98
2019-02-25T17:20:30.106Z,56.28
2019-02-25T17:22:59.758Z,54.63
2019-02-25T17:25:31.332Z,58.60
2019-02-25T17:27:58.849Z,62.88
2019-02-25T17:30:28.772Z,59.77
2019-02-25T17:32:57.524Z,55.78
2019-02-25T17:35:30.240Z,55.40
2019-02-25T17:37:58.964Z,53.85
2019-02-25T17:40:27.442Z,56.90
2019-02-25T17:44:03.507Z,56.70
2019-02-25T17:46:34.968Z,60.30
2019-02-25T17:49:03.930Z,55.17
2019-02-25T17:51:32.639Z,58.80
2019-02-25T17:54:01.593Z,60.00
2019-02-25T17:56:30.311Z,68.10
2019-02-25T17:59:01.008Z,60.70
2019-02-25T18:01:29.815Z,62.58
2019-02-25T18:03:59.875Z,65.47
2019-02-25T18:06:30.115Z,64.65
2019-02-25T18:08:59.948Z,60.35
2019-02-25T18:11:29.830Z,53.83
2019-02-25T18:13:58.864Z,63.23
2019-02-25T18:16:27.593Z,56.88
2019-02-25T18:18:56.898Z,59.75
2019-02-25T18:21:28.880Z,56.88
2019-02-25T18:23:56.608Z,70.10
2019-02-25T18:26:25.460Z,71.47
2019-02-25T18:28:54.206Z,69.05
2019-02-25T18:31:23.158Z,64.62
2019-02-25T18:33:52.823Z,70.85
2019-02-25T18:36:23.652Z,65.70
2019-02-25T18:38:52.780Z,66.72
2019-02-25T18:41:23.161Z,73.42
2019-02-25T18:43:53.546Z,59.70
2019-02-25T18:46:23.385Z,62.93
2019-02-25T18:48:52.707Z,70.42
2019-02-25T18:51:24.190Z,64.97
2019-02-25T18:53:52.774Z,56.90
2019-02-25T18:56:22.724Z,63.87
2019-02-25T18:58:51.493Z,57.58
2019-02-25T19:01:20.428Z,65.28
2019-02-25T19:03:50.577Z,56.13
2019-02-25T19:06:21.013Z,70.50
2019-02-25T19:08:51.323Z,64.90
2019-02-25T19:11:21.354Z,61.00
2019-02-25T19:13:52.039Z,58.98
2019-02-25T19:16:21.951Z,62.88
2019-02-25T19:18:51.144Z,50.48
2019-02-25T19:21:19.711Z,60.40
2019-02-25T19:23:48.601Z,54.10
2019-02-25T19:26:19.569Z,55.88
2019-02-25T19:28:48.069Z,59.30
2019-02-25T19:31:18.087Z,48.90
2019-02-25T19:33:46.738Z,53.20
2019-02-25T19:36:15.886Z,49.88
2019-02-25T19:38:45.848Z,46.10
2019-02-25T19:41:15.845Z,58.42
2019-02-25T19:43:45.245Z,54.27
2019-02-25T19:46:14.114Z,49.60
2019-02-25T19:48:42.883Z,53.17
2019-02-25T19:51:13.142Z,51.55
2019-02-25T19:53:42.973Z,57.83
2019-02-25T19:56:12.173Z,56.00
2019-02-25T19:58:41.179Z,59.00
2019-02-25T20:01:10.983Z,49.48
2019-02-25T20:03:42.162Z,55.58
2019-02-25T20:06:13.913Z,58.02
2019-02-25T20:08:40.805Z,59.30
2019-02-25T20:11:10.026Z,62.62
2019-02-25T20:13:40.561Z,60.48
2019-02-25T20:16:13.409Z,59.13
2019-02-25T20:18:41.872Z,63.02
2019-02-25T20:21:10.709Z,54.18
2019-02-25T20:23:40.258Z,61.15
2019-02-25T20:26:11.344Z,56.83
2019-02-25T20:28:41.167Z,58.65
2019-02-25T20:31:10.037Z,57.15
2019-02-25T20:33:39.984Z,58.52
2019-02-25T20:36:08.731Z,59.73
2019-02-25T20:38:39.299Z,58.48
2019-02-25T20:41:07.862Z,63.23
2019-02-25T20:43:36.582Z,58.20
2019-02-25T20:46:06.051Z,70.78
2019-02-25T20:48:35.092Z,65.32
2019-02-25T20:51:04.775Z,71.05
2019-02-25T20:53:34.081Z,61.85
2019-02-25T20:56:02.827Z,70.00
2019-02-25T20:58:31.560Z,66.33
2019-02-25T21:01:00.126Z,67.75
2019-02-25T21:03:28.887Z,63.25
2019-02-25T21:05:58.006Z,62.38
2019-02-25T21:08:26.683Z,62.55
2019-02-25T21:10:55.253Z,66.95
2019-02-25T21:13:25.951Z,65.35
2019-02-25T21:15:54.295Z,56.33
2019-02-25T21:18:24.483Z,65.42
2019-02-25T21:20:53.732Z,65.03
2019-02-25T21:23:22.558Z,69.03
2019-02-25T21:25:53.471Z,57.80
2019-02-25T21:28:25.133Z,62.43
2019-02-25T21:30:52.849Z,67.00
2019-02-25T21:33:24.862Z,62.33
2019-02-25T21:35:52.023Z,58.75
2019-02-25T21:38:22.118Z,70.67
2019-02-25T21:40:52.620Z,61.88
2019-02-25T21:43:23.618Z,59.88
2019-02-25T21:45:52.149Z,57.25
2019-02-25T21:48:25.132Z,59.85
2019-02-25T21:50:52.289Z,61.45
2019-02-25T21:53:21.010Z,58.23
2019-02-25T21:55:51.106Z,69.05
2019-02-25T21:58:21.240Z,53.98
2019-02-25T22:00:50.436Z,56.83
2019-02-25T22:03:19.506Z,62.00
2019-02-25T22:05:51.424Z,57.10
2019-02-25T22:08:22.086Z,54.33
2019-02-25T22:10:50.133Z,59.18
2019-02-25T22:13:20.747Z,71.50
2019-02-25T22:15:49.071Z,63.60
2019-02-25T22:18:17.798Z,51.37
2019-02-25T22:20:47.529Z,64.00
2019-02-25T22:23:16.628Z,57.98
2019-02-25T22:25:45.294Z,62.38
2019-02-25T22:28:13.936Z,53.48
2019-02-25T22:30:42.914Z,60.10
2019-02-25T22:33:23.862Z,62.95
2019-02-25T22:35:45.078Z,55.12
2019-02-25T22:38:13.991Z,63.42
2019-02-25T22:40:42.719Z,53.68
2019-02-25T22:43:12.205Z,56.92
2019-02-25T22:45:42.092Z,58.42
2019-02-25T22:48:13.568Z,53.28
2019-02-25T22:50:41.289Z,58.30
2019-02-25T22:53:11.291Z,56.95
2019-02-25T22:55:42.673Z,64.07
2019-02-25T22:58:10.924Z,56.30
2019-02-25T23:00:47.853Z,61.77
2019-02-25T23:03:18.476Z,59.77
2019-02-25T23:05:48.690Z,60.03
2019-02-25T23:08:18.189Z,58.70
2019-02-25T23:10:49.237Z,54.13
2019-02-25T23:13:17.733Z,55.08
2019-02-25T23:15:49.430Z,55.38
2019-02-25T23:18:19.981Z,59.20
2019-02-25T23:20:50.324Z,56.73
2019-02-25T23:23:20.979Z,49.30
2019-02-25T23:25:49.121Z,54.42
2019-02-25T23:28:20.694Z,48.90
2019-02-25T23:31:08.706Z,55.45
2019-02-25T23:33:40.171Z,62.83
2019-02-25T23:36:08.401Z,52.62
2019-02-25T23:38:37.839Z,57.78
2019-02-25T23:41:07.656Z,57.45
2019-02-25T23:43:38.576Z,62.73
2019-02-25T23:46:08.734Z,56.55
2019-02-25T23:48:38.612Z,48.80
2019-02-25T23:51:07.825Z,49.35
2019-02-25T23:53:36.532Z,50.98
2019-02-25T23:56:05.277Z,54.33
2019-02-25T23:58:33.922Z,46.63
